createdAt,value
2023-11-01T00:00:20.932Z,8.85
2023-11-01T00:05:23.617Z,8.84
2023-11-01T00:10:26.292Z,8.89
2023-11-01T00:15:29.444Z,8.72
2023-11-01T00:20:32.085Z,8.67
2023-11-01T00:25:36.764Z,8.81
2023-11-01T00:30:39.528Z,8.76
2023-11-01T00:35:42.688Z,8.67
2023-11-01T00:40:45.322Z,8.54
2023-11-01T00:45:47.996Z,8.67
2023-11-01T00:50:50.583Z,8.49
2023-11-01T00:55:53.133Z,8.56
2023-11-01T01:00:55.728Z,8.54
2023-11-01T01:05:58.315Z,8.62
2023-11-01T01:11:00.890Z,8.58
2023-11-01T01:16:04.772Z,8.60
2023-11-01T01:21:07.420Z,8.50
2023-11-01T01:26:10.061Z,8.48
2023-11-01T01:31:12.718Z,8.48
2023-11-01T01:36:15.310Z,8.38
2023-11-01T01:41:17.980Z,8.20
2023-11-01T01:46:20.863Z,8.04
2023-11-01T01:51:23.507Z,8.19
2023-11-01T01:56:26.334Z,8.13
2023-11-01T02:01:38.780Z,7.99
2023-11-01T02:06:45.844Z,8.05
2023-11-01T02:11:48.448Z,7.93
2023-11-01T02:16:52.118Z,7.79
2023-11-01T02:21:54.758Z,7.68
2023-11-01T02:26:57.344Z,7.78
2023-11-01T02:32:00.059Z,7.90
2023-11-01T02:37:02.600Z,7.94
2023-11-01T02:42:05.910Z,7.87
2023-11-01T02:47:08.475Z,7.86
2023-11-01T02:52:11.117Z,7.87
2023-11-01T02:57:13.742Z,7.56
2023-11-01T03:02:16.440Z,7.65
2023-11-01T03:07:28.157Z,7.81
2023-11-01T03:12:30.800Z,7.62
2023-11-01T03:17:33.522Z,7.53
2023-11-01T03:22:36.647Z,7.45
2023-11-01T03:27:39.380Z,7.36
2023-11-01T03:32:42.178Z,7.50
2023-11-01T03:37:44.856Z,7.58
2023-11-01T03:42:47.548Z,7.77
2023-11-01T03:47:50.504Z,7.91
2023-11-01T03:52:53.227Z,7.95
2023-11-01T03:57:55.843Z,7.90
2023-11-01T04:02:58.615Z,7.91
2023-11-01T04:08:01.295Z,7.61
2023-11-01T04:13:05.193Z,7.74
2023-11-01T04:18:08.326Z,7.96
2023-11-01T04:23:11.045Z,8.20
2023-11-01T04:28:13.680Z,8.11
2023-11-01T04:33:16.863Z,8.12
2023-11-01T04:38:20.079Z,8.20
2023-11-01T04:43:22.755Z,8.40
2023-11-01T04:48:25.497Z,8.39
2023-11-01T04:53:31.695Z,8.52
2023-11-01T04:58:36.508Z,8.70
2023-11-01T05:03:39.497Z,8.72
2023-11-01T05:08:42.240Z,8.62
2023-11-01T05:13:44.964Z,8.72
2023-11-01T05:18:47.620Z,8.67
2023-11-01T05:23:50.328Z,8.75
2023-11-01T05:28:52.961Z,8.83
2023-11-01T05:33:55.677Z,8.54
2023-11-01T05:38:58.536Z,8.68
2023-11-01T05:44:01.458Z,8.87
2023-11-01T05:49:05.734Z,8.73
2023-11-01T05:54:08.444Z,9.02
2023-11-01T05:59:11.261Z,9.02
2023-11-01T06:04:14.008Z,9.16
2023-11-01T06:09:21.125Z,9.20
2023-11-01T06:14:27.100Z,9.36
2023-11-01T06:19:33.472Z,9.57
2023-11-01T06:24:36.917Z,9.73
2023-11-01T06:29:40.237Z,9.85
2023-11-01T06:34:43.101Z,9.77
2023-11-01T06:39:45.839Z,9.64
2023-11-01T06:44:49.073Z,9.56
2023-11-01T06:49:52.497Z,9.91
2023-11-01T06:54:55.801Z,10.26
2023-11-01T06:59:58.816Z,10.04
2023-11-01T07:05:04.132Z,10.23
2023-11-01T07:10:09.516Z,10.30
2023-11-01T07:15:13.645Z,10.54
2023-11-01T07:20:16.548Z,10.68
2023-11-01T07:25:19.313Z,10.78
2023-11-01T07:30:23.042Z,11.02
2023-11-01T07:35:26.401Z,11.05
2023-11-01T07:40:29.770Z,11.33
2023-11-01T07:45:33.173Z,11.55
2023-11-01T07:50:36.528Z,11.63
2023-11-01T07:55:40.061Z,11.72
2023-11-01T08:00:43.472Z,11.87
2023-11-01T08:05:47.063Z,12.20
2023-11-01T08:10:50.259Z,12.07
2023-11-01T08:15:53.989Z,12.19
2023-11-01T08:20:57.653Z,12.10
2023-11-01T08:26:01.476Z,12.45
2023-11-01T08:31:05.453Z,12.44
2023-11-01T08:36:09.473Z,12.65
2023-11-01T08:41:16.509Z,12.76
2023-11-01T08:46:20.990Z,12.77
2023-11-01T08:51:24.516Z,12.91
2023-11-01T08:56:27.910Z,12.87
2023-11-01T09:01:31.646Z,12.95
2023-11-01T09:06:35.957Z,13.01
2023-11-01T09:11:39.672Z,12.99
2023-11-01T09:16:43.142Z,13.17
2023-11-01T09:21:46.317Z,13.11
2023-11-01T09:26:49.595Z,12.98
2023-11-01T09:31:53.438Z,13.00
2023-11-01T09:36:57.987Z,13.07
2023-11-01T09:42:16.642Z,13.05
2023-11-01T09:47:20.340Z,12.92
2023-11-01T09:52:25.857Z,13.11
2023-11-01T09:57:31.555Z,13.15
2023-11-01T10:02:36.474Z,13.16
2023-11-01T10:07:39.625Z,13.12
2023-11-01T10:12:45.366Z,13.42
2023-11-01T10:17:49.253Z,13.35
2023-11-01T10:22:52.937Z,13.49
2023-11-01T10:27:57.110Z,13.65
2023-11-01T10:33:01.487Z,13.72
2023-11-01T10:38:07.242Z,13.68
2023-11-01T10:43:11.420Z,13.68
2023-11-01T10:48:16.516Z,13.65
2023-11-01T10:53:24.192Z,13.70
2023-11-01T10:58:29.736Z,13.76
2023-11-01T11:03:45.231Z,13.83
2023-11-01T11:09:26.337Z,13.82
2023-11-01T11:15:05.860Z,13.89
2023-11-01T11:20:13.786Z,13.93
2023-11-01T11:25:47.429Z,14.03
2023-11-01T11:31:10.514Z,14.00
2023-11-01T11:36:25.518Z,14.07
2023-11-01T11:41:30.431Z,13.97
2023-11-01T11:46:36.944Z,13.97
2023-11-01T11:51:53.670Z,13.95
2023-11-01T11:56:59.651Z,13.91
2023-11-01T12:02:18.775Z,13.89
2023-11-01T12:07:26.843Z,13.71
2023-11-01T12:12:31.512Z,13.68
2023-11-01T12:17:35.373Z,13.59
2023-11-01T12:22:45.869Z,13.68
2023-11-01T12:27:52.799Z,13.43
2023-11-01T12:32:56.082Z,13.44
2023-11-01T12:38:02.881Z,13.43
2023-11-01T12:43:13.238Z,13.37
2023-11-01T12:48:17.430Z,13.40
2023-11-01T12:53:20.084Z,13.35
2023-11-01T12:58:23.845Z,13.39
2023-11-01T13:03:27.183Z,13.53
2023-11-01T13:08:30.372Z,13.55
2023-11-01T13:13:33.276Z,13.53
2023-11-01T13:18:36.031Z,13.63
2023-11-01T13:23:38.858Z,13.62
2023-11-01T13:28:41.608Z,13.62
2023-11-01T13:33:44.369Z,13.74
2023-11-01T13:38:47.165Z,13.78
2023-11-01T13:43:49.827Z,13.85
2023-11-01T13:48:52.505Z,13.82
2023-11-01T13:53:55.424Z,13.87
2023-11-01T13:58:58.387Z,13.92
2023-11-01T14:04:01.356Z,13.96
2023-11-01T14:09:05.500Z,13.93
2023-11-01T14:14:08.299Z,14.02
2023-11-01T14:19:12.019Z,14.07
2023-11-01T14:24:18.220Z,14.15
2023-11-01T14:29:22.259Z,14.25
2023-11-01T14:34:29.329Z,14.18
2023-11-01T14:39:32.067Z,14.10
2023-11-01T14:44:34.895Z,14.22
2023-11-01T14:49:37.679Z,14.26
2023-11-01T14:54:40.582Z,14.25
2023-11-01T14:59:43.439Z,14.33
2023-11-01T15:04:48.938Z,14.38
2023-11-01T15:09:51.818Z,14.37
2023-11-01T15:14:54.663Z,14.35
2023-11-01T15:19:58.937Z,14.40
2023-11-01T15:25:01.769Z,14.31
2023-11-01T15:30:05.782Z,14.54
2023-11-01T15:35:08.971Z,14.58
2023-11-01T15:40:12.048Z,14.61
2023-11-01T15:45:16.507Z,14.66
2023-11-01T15:50:19.706Z,14.65
2023-11-01T15:55:22.582Z,14.72
2023-11-01T16:00:25.911Z,14.73
2023-11-01T16:05:29.806Z,14.74
2023-11-01T16:10:32.684Z,14.82
2023-11-01T16:15:35.714Z,14.87
2023-11-01T16:20:39.824Z,14.93
2023-11-01T16:25:43.187Z,14.97
2023-11-01T16:30:46.155Z,14.95
2023-11-01T16:35:50.714Z,14.96
2023-11-01T16:40:53.637Z,14.93
2023-11-01T16:45:56.443Z,15.06
2023-11-01T16:50:59.301Z,15.09
2023-11-01T16:56:03.543Z,15.17
2023-11-01T17:01:06.613Z,15.22
2023-11-01T17:06:09.983Z,15.21
2023-11-01T17:11:12.757Z,15.26
2023-11-01T17:16:15.493Z,15.25
2023-11-01T17:21:18.461Z,15.28
2023-11-01T17:26:28.768Z,15.30
2023-11-01T17:31:43.061Z,15.29
2023-11-01T17:42:11.155Z,15.24
2023-11-01T17:47:31.213Z,15.32
2023-11-01T17:52:41.703Z,15.41
2023-11-01T17:57:46.659Z,15.41
2023-11-01T18:03:10.186Z,15.47
2023-11-01T18:08:17.873Z,15.44
2023-11-01T18:13:34.551Z,15.46
2023-11-01T18:18:42.030Z,15.50
2023-11-01T18:23:54.079Z,15.52
2023-11-01T18:29:02.735Z,15.54
2023-11-01T18:34:08.941Z,15.50
2023-11-01T18:39:12.522Z,15.50
2023-11-01T18:44:24.943Z,15.49
2023-11-01T18:50:01.948Z,15.50
2023-11-01T18:55:08.491Z,15.53
2023-11-01T19:00:21.905Z,15.65
2023-11-01T19:05:24.774Z,15.58
2023-11-01T19:10:36.091Z,15.61
2023-11-01T19:15:38.817Z,15.56
2023-11-01T19:20:44.045Z,15.58
2023-11-01T19:25:47.060Z,15.65
2023-11-01T19:30:49.808Z,15.64
2023-11-01T19:35:55.593Z,15.57
2023-11-01T19:41:01.678Z,15.53
2023-11-01T19:46:04.879Z,15.57
2023-11-01T19:51:08.449Z,15.64
2023-11-01T19:56:11.145Z,15.62
2023-11-01T20:01:15.018Z,15.66
2023-11-01T20:06:17.885Z,15.67
2023-11-01T20:11:20.590Z,15.68
2023-11-01T20:16:30.263Z,15.72
2023-11-01T20:21:34.125Z,15.64
2023-11-01T20:26:37.020Z,15.63
2023-11-01T20:31:39.582Z,15.27
2023-11-01T20:36:42.165Z,15.12
2023-11-01T20:41:45.657Z,15.15
2023-11-01T20:46:48.488Z,15.02
2023-11-01T20:51:51.044Z,14.83
2023-11-01T20:56:53.713Z,14.86
2023-11-01T21:01:56.288Z,14.96
2023-11-01T21:07:00.046Z,14.95
2023-11-01T21:12:03.772Z,15.06
2023-11-01T21:17:07.622Z,15.15
2023-11-01T21:22:10.377Z,15.08
2023-11-01T21:27:13.010Z,15.23
2023-11-01T21:32:15.628Z,15.25
2023-11-01T21:37:18.289Z,15.17
2023-11-01T21:42:23.566Z,15.16
2023-11-01T21:47:37.949Z,15.15
2023-11-01T21:52:41.338Z,15.10
2023-11-01T21:57:43.974Z,15.04
2023-11-01T22:02:49.800Z,15.08
2023-11-01T22:07:52.708Z,15.16
2023-11-01T22:12:55.422Z,15.04
2023-11-01T22:17:58.056Z,15.12
2023-11-01T22:23:02.818Z,15.10
2023-11-01T22:28:10.096Z,15.06
2023-11-01T22:33:15.375Z,15.01
2023-11-01T22:38:18.272Z,14.96
2023-11-01T22:43:21.843Z,14.96
2023-11-01T22:48:24.489Z,14.97
2023-11-01T22:53:27.636Z,14.90
2023-11-01T22:58:30.228Z,14.88
2023-11-01T23:03:33.352Z,14.77
2023-11-01T23:08:36.052Z,14.72
2023-11-01T23:13:39.985Z,14.78
2023-11-01T23:18:43.926Z,14.67
2023-11-01T23:23:46.502Z,14.62
2023-11-01T23:29:06.830Z,14.68
2023-11-01T23:34:39.461Z,14.63
2023-11-01T23:39:42.010Z,14.56
2023-11-01T23:44:45.210Z,14.49
2023-11-01T23:49:57.194Z,14.48
2023-11-01T23:55:00.121Z,14.46
